createdAt,value
2018-07-11T00:01:49.549Z,18.50
2018-07-11T00:04:17.076Z,18.50
2018-07-11T00:06:44.633Z,18.50
2018-07-11T00:09:12.086Z,18.50
2018-07-11T00:11:39.731Z,18.50
2018-07-11T00:14:07.243Z,18.50
2018-07-11T00:16:34.942Z,18.50
2018-07-11T00:19:02.597Z,18.40
2018-07-11T00:21:30.205Z,18.40
2018-07-11T00:23:57.697Z,18.40
2018-07-11T00:26:25.318Z,18.40
2018-07-11T00:28:52.823Z,18.30
2018-07-11T00:31:20.450Z,18.30
2018-07-11T00:33:48.010Z,18.30
2018-07-11T00:36:15.465Z,18.30
2018-07-11T00:38:43.342Z,18.30
2018-07-11T00:41:10.840Z,18.20
2018-07-11T00:43:38.391Z,18.20
2018-07-11T00:46:06.142Z,18.20
2018-07-11T00:48:34.124Z,18.20
2018-07-11T00:51:02.290Z,18.10
2018-07-11T00:53:30.966Z,18.00
2018-07-11T00:55:59.187Z,18.00
2018-07-11T00:58:33.551Z,17.90
2018-07-11T01:01:06.643Z,17.90
2018-07-11T01:03:36.210Z,17.80
2018-07-11T01:06:03.913Z,17.80
2018-07-11T01:08:35.009Z,17.80
2018-07-11T01:11:08.439Z,17.70
2018-07-11T01:13:36.208Z,17.70
2018-07-11T01:16:03.954Z,17.70
2018-07-11T01:18:32.562Z,17.70
2018-07-11T01:21:00.147Z,17.60
2018-07-11T01:23:27.705Z,17.60
2018-07-11T01:25:55.186Z,17.60
2018-07-11T01:28:22.655Z,17.60
2018-07-11T01:30:50.246Z,17.60
2018-07-11T01:33:17.753Z,17.40
2018-07-11T01:35:45.238Z,17.40
2018-07-11T01:38:12.799Z,17.40
2018-07-11T01:40:40.375Z,17.40
2018-07-11T01:43:07.837Z,17.40
2018-07-11T01:48:02.780Z,17.40
2018-07-11T01:50:30.977Z,17.40
2018-07-11T01:52:59.435Z,17.40
2018-07-11T01:55:27.715Z,17.40
2018-07-11T01:57:58.776Z,17.40
2018-07-11T02:00:27.262Z,17.40
2018-07-11T02:02:54.825Z,17.40
2018-07-11T02:05:23.814Z,17.40
2018-07-11T02:07:51.926Z,17.30
2018-07-11T02:10:19.469Z,17.40
2018-07-11T02:12:48.188Z,17.40
2018-07-11T02:15:15.907Z,17.40
2018-07-11T02:17:43.499Z,17.40
2018-07-11T02:20:12.973Z,17.40
2018-07-11T02:22:40.435Z,17.40
2018-07-11T02:25:08.375Z,17.40
2018-07-11T02:27:36.173Z,17.30
2018-07-11T02:30:03.978Z,17.30
2018-07-11T02:32:32.758Z,17.40
2018-07-11T02:35:00.316Z,17.40
2018-07-11T02:37:27.939Z,17.40
2018-07-11T02:39:55.419Z,17.30
2018-07-11T02:42:23.008Z,17.40
2018-07-11T02:44:50.624Z,17.30
2018-07-11T02:47:24.001Z,17.30
2018-07-11T02:49:51.472Z,17.30
2018-07-11T02:52:19.159Z,17.30
2018-07-11T02:54:46.595Z,17.30
2018-07-11T02:57:14.087Z,17.30
2018-07-11T02:59:41.753Z,17.30
2018-07-11T03:02:09.411Z,17.30
2018-07-11T03:04:37.297Z,17.30
2018-07-11T03:07:05.567Z,17.30
2018-07-11T03:09:33.092Z,17.20
2018-07-11T03:12:00.600Z,17.20
2018-07-11T03:14:28.374Z,17.20
2018-07-11T03:16:55.912Z,17.20
2018-07-11T03:19:23.458Z,17.10
2018-07-11T03:21:51.079Z,17.10
2018-07-11T03:24:19.010Z,17.10
2018-07-11T03:26:46.500Z,17.10
2018-07-11T03:29:14.246Z,17.00
2018-07-11T03:31:41.924Z,17.00
2018-07-11T03:34:09.479Z,17.00
2018-07-11T03:36:37.172Z,16.90
2018-07-11T03:39:05.483Z,16.90
2018-07-11T03:41:33.019Z,16.90
2018-07-11T03:44:00.669Z,16.80
2018-07-11T03:46:28.242Z,16.80
2018-07-11T03:48:55.795Z,16.80
2018-07-11T03:51:23.363Z,16.80
2018-07-11T03:53:50.975Z,16.80
2018-07-11T03:58:46.012Z,16.80
2018-07-11T04:01:13.491Z,16.70
2018-07-11T04:03:40.888Z,16.70
2018-07-11T04:06:09.390Z,16.70
2018-07-11T04:08:37.000Z,16.70
2018-07-11T04:11:04.534Z,16.70
2018-07-11T04:13:32.100Z,16.70
2018-07-11T04:15:59.602Z,16.70
2018-07-11T04:18:28.932Z,16.60
2018-07-11T04:20:56.979Z,16.60
2018-07-11T04:23:24.793Z,16.60
2018-07-11T04:25:52.797Z,16.50
2018-07-11T04:28:20.657Z,16.50
2018-07-11T04:30:48.343Z,16.50
2018-07-11T04:33:20.068Z,16.50
2018-07-11T04:35:47.867Z,16.50
2018-07-11T04:38:15.417Z,16.50
2018-07-11T04:40:43.555Z,16.50
2018-07-11T04:43:11.487Z,16.50
2018-07-11T04:45:39.158Z,16.50
2018-07-11T04:48:07.314Z,16.50
2018-07-11T04:50:34.995Z,16.40
2018-07-11T04:53:05.475Z,16.40
2018-07-11T04:55:33.147Z,16.40
2018-07-11T04:58:00.817Z,16.40
2018-07-11T05:00:28.407Z,16.40
2018-07-11T05:02:55.998Z,16.30
2018-07-11T05:05:23.654Z,16.40
2018-07-11T05:07:51.400Z,16.40
2018-07-11T05:10:19.022Z,16.50
2018-07-11T05:12:46.546Z,16.50
2018-07-11T05:15:14.042Z,16.50
2018-07-11T05:17:41.704Z,16.50
2018-07-11T05:20:09.259Z,16.50
2018-07-11T05:22:36.820Z,16.60
2018-07-11T05:25:04.127Z,16.50
2018-07-11T05:27:31.674Z,16.60
2018-07-11T05:29:59.335Z,16.60
2018-07-11T05:32:26.976Z,16.60
2018-07-11T05:34:54.630Z,16.70
2018-07-11T05:37:22.191Z,16.70
2018-07-11T05:39:49.787Z,16.70
2018-07-11T05:42:17.372Z,16.80
2018-07-11T05:44:44.915Z,16.80
2018-07-11T05:47:12.447Z,16.80
2018-07-11T05:49:40.055Z,16.90
2018-07-11T05:52:07.814Z,16.90
2018-07-11T05:54:35.425Z,16.90
2018-07-11T05:57:03.043Z,17.00
2018-07-11T05:59:30.821Z,17.00
2018-07-11T06:01:58.595Z,16.60
2018-07-11T06:04:26.205Z,17.00
2018-07-11T06:06:53.903Z,17.00
2018-07-11T06:09:21.387Z,17.00
2018-07-11T06:11:48.983Z,17.10
2018-07-11T06:14:16.597Z,17.10
2018-07-11T06:16:44.707Z,17.10
2018-07-11T06:19:12.198Z,17.10
2018-07-11T06:21:39.903Z,17.10
2018-07-11T06:24:08.293Z,17.20
2018-07-11T06:26:35.893Z,17.20
2018-07-11T06:29:03.473Z,17.20
2018-07-11T06:31:31.059Z,17.20
2018-07-11T06:33:58.609Z,17.30
2018-07-11T06:36:26.161Z,17.30
2018-07-11T06:38:53.727Z,17.30
2018-07-11T06:41:21.187Z,17.30
2018-07-11T06:43:48.708Z,17.40
2018-07-11T06:46:16.275Z,17.40
2018-07-11T06:48:43.934Z,17.40
2018-07-11T06:53:38.838Z,17.50
2018-07-11T06:56:06.507Z,17.50
2018-07-11T06:58:33.984Z,17.50
2018-07-11T07:01:01.498Z,17.50
2018-07-11T07:03:29.061Z,17.50
2018-07-11T07:05:56.691Z,17.50
2018-07-11T07:08:24.400Z,17.60
2018-07-11T07:10:52.339Z,17.60
2018-07-11T07:13:19.826Z,17.60
2018-07-11T07:15:47.309Z,17.60
2018-07-11T07:18:14.783Z,17.60
2018-07-11T07:20:42.396Z,17.70
2018-07-11T07:23:09.956Z,17.80
2018-07-11T07:25:37.459Z,17.80
2018-07-11T07:28:05.019Z,17.80
2018-07-11T07:30:32.471Z,17.80
2018-07-11T07:32:59.950Z,17.80
2018-07-11T07:35:27.497Z,17.80
2018-07-11T07:37:55.115Z,17.90
2018-07-11T07:40:22.599Z,17.90
2018-07-11T07:42:50.267Z,17.90
2018-07-11T07:45:17.779Z,17.90
2018-07-11T07:47:46.058Z,18.00
2018-07-11T07:50:14.843Z,18.00
2018-07-11T07:52:42.415Z,18.10
2018-07-11T07:55:10.384Z,18.10
2018-07-11T07:57:38.270Z,18.20
2018-07-11T08:00:06.315Z,18.20
2018-07-11T08:02:33.842Z,18.20
2018-07-11T08:05:04.566Z,18.20
2018-07-11T08:07:32.717Z,18.20
2018-07-11T08:10:00.325Z,18.30
2018-07-11T08:12:28.050Z,18.30
2018-07-11T08:14:55.643Z,18.40
2018-07-11T08:17:23.274Z,18.40
2018-07-11T08:19:50.797Z,18.50
2018-07-11T08:22:29.831Z,18.50
2018-07-11T08:26:10.673Z,18.50
2018-07-11T08:30:53.361Z,18.50
2018-07-11T08:33:31.718Z,18.60
2018-07-11T08:36:10.583Z,18.60
2018-07-11T08:38:49.591Z,18.70
2018-07-11T08:41:26.099Z,18.70
2018-07-11T08:44:09.141Z,18.80
2018-07-11T08:48:53.527Z,18.80
2018-07-11T08:52:08.861Z,18.80
2018-07-11T08:57:54.010Z,18.90
2018-07-11T09:03:00.055Z,18.90
2018-07-11T09:05:47.803Z,19.00
2018-07-11T09:08:28.566Z,19.00
2018-07-11T09:11:37.055Z,19.00
2018-07-11T09:16:21.190Z,19.00
2018-07-11T09:20:05.583Z,19.10
2018-07-11T09:23:44.980Z,19.10
2018-07-11T09:26:12.535Z,19.20
2018-07-11T09:28:40.043Z,19.20
2018-07-11T09:31:07.498Z,19.30
2018-07-11T09:33:34.995Z,19.30
2018-07-11T09:36:02.640Z,19.30
2018-07-11T09:38:30.467Z,19.30
2018-07-11T09:40:58.027Z,19.40
2018-07-11T09:43:25.787Z,19.00
2018-07-11T09:45:53.671Z,19.30
2018-07-11T09:48:21.349Z,19.40
2018-07-11T09:53:16.727Z,19.40
2018-07-11T09:55:44.255Z,19.50
2018-07-11T09:58:11.797Z,19.60
2018-07-11T10:00:45.222Z,19.60
2018-07-11T10:03:12.774Z,19.60
2018-07-11T10:05:40.364Z,19.70
2018-07-11T10:08:09.178Z,19.70
2018-07-11T10:10:36.740Z,19.70
2018-07-11T10:13:04.562Z,19.70
2018-07-11T10:15:32.041Z,19.70
2018-07-11T10:17:59.689Z,19.70
2018-07-11T10:20:27.155Z,19.70
2018-07-11T10:22:54.668Z,19.80
2018-07-11T10:25:22.130Z,19.90
2018-07-11T10:27:59.855Z,19.90
2018-07-11T10:30:27.429Z,19.90
2018-07-11T10:32:55.018Z,19.90
2018-07-11T10:35:22.644Z,20.00
2018-07-11T10:37:50.558Z,20.00
2018-07-11T10:40:18.119Z,20.10
2018-07-11T10:42:45.598Z,20.10
2018-07-11T10:45:13.114Z,20.10
2018-07-11T10:47:40.626Z,20.10
2018-07-11T10:50:08.229Z,20.10
2018-07-11T10:52:35.823Z,20.10
2018-07-11T10:55:03.509Z,20.10
2018-07-11T10:57:31.005Z,20.20
2018-07-11T10:59:58.608Z,20.20
2018-07-11T11:02:26.093Z,20.20
2018-07-11T11:04:53.855Z,20.30
2018-07-11T11:07:21.473Z,20.30
2018-07-11T11:09:49.101Z,20.30
2018-07-11T11:12:16.639Z,20.40
2018-07-11T11:14:44.190Z,20.40
2018-07-11T11:17:11.690Z,20.40
2018-07-11T11:19:39.198Z,20.50
2018-07-11T11:22:08.446Z,20.60
2018-07-11T11:24:35.934Z,20.70
2018-07-11T11:27:03.555Z,20.80
2018-07-11T11:29:31.487Z,20.80
2018-07-11T11:31:59.065Z,20.90
2018-07-11T11:34:26.985Z,20.90
2018-07-11T11:36:54.555Z,20.80
2018-07-11T11:39:22.069Z,20.80
2018-07-11T11:41:49.853Z,20.80
2018-07-11T11:44:17.313Z,20.80
2018-07-11T11:46:44.924Z,20.80
2018-07-11T11:49:12.867Z,20.80
2018-07-11T11:51:40.484Z,20.80
2018-07-11T11:54:08.214Z,20.70
2018-07-11T11:56:35.862Z,20.80
2018-07-11T11:59:03.508Z,20.80
2018-07-11T12:01:31.103Z,20.90
2018-07-11T12:03:58.674Z,20.90
2018-07-11T12:06:26.560Z,20.90
2018-07-11T12:08:54.349Z,20.90
2018-07-11T12:11:22.417Z,20.90
2018-07-11T12:13:50.429Z,20.90
2018-07-11T12:16:18.256Z,21.00
2018-07-11T12:18:45.858Z,21.00
2018-07-11T12:21:13.648Z,21.10
2018-07-11T12:23:41.635Z,21.00
2018-07-11T12:26:10.609Z,21.10
2018-07-11T12:28:38.351Z,21.10
2018-07-11T12:31:06.059Z,21.10
2018-07-11T12:33:34.120Z,21.20
2018-07-11T12:36:01.809Z,21.20
2018-07-11T12:38:29.811Z,21.30
2018-07-11T12:40:57.467Z,21.30
2018-07-11T12:43:25.861Z,21.30
2018-07-11T12:45:53.427Z,21.40
2018-07-11T12:48:26.794Z,21.40
2018-07-11T12:50:54.562Z,21.50
2018-07-11T12:53:22.341Z,21.50
2018-07-11T12:55:49.998Z,21.50
2018-07-11T13:00:46.614Z,21.70
2018-07-11T13:03:14.849Z,21.80
2018-07-11T13:05:42.698Z,21.90
2018-07-11T13:08:10.339Z,22.00
2018-07-11T13:10:38.598Z,22.00
2018-07-11T13:13:06.488Z,22.00
2018-07-11T13:15:34.158Z,22.00
2018-07-11T13:18:01.670Z,22.00
2018-07-11T13:20:29.238Z,22.00
2018-07-11T13:22:56.878Z,22.00
2018-07-11T13:25:24.871Z,21.90
2018-07-11T13:30:22.443Z,22.00
2018-07-11T13:32:50.461Z,22.00
2018-07-11T13:35:18.610Z,22.00
2018-07-11T13:37:46.492Z,22.00
2018-07-11T13:40:14.594Z,22.10
2018-07-11T13:42:42.289Z,22.10
2018-07-11T13:45:10.435Z,22.10
2018-07-11T13:47:38.972Z,22.10
2018-07-11T13:50:07.669Z,22.00
2018-07-11T13:52:35.272Z,22.10
2018-07-11T13:55:03.720Z,22.10
2018-07-11T13:57:31.590Z,22.00
2018-07-11T14:02:28.409Z,21.90
2018-07-11T14:04:56.042Z,21.90
2018-07-11T14:07:24.546Z,21.80
2018-07-11T14:09:52.432Z,21.80
2018-07-11T14:12:20.318Z,21.80
2018-07-11T14:14:48.246Z,21.70
2018-07-11T14:17:15.908Z,21.70
2018-07-11T14:19:44.102Z,21.60
2018-07-11T14:22:12.148Z,21.30
2018-07-11T14:24:39.986Z,21.50
2018-07-11T14:27:07.842Z,21.40
2018-07-11T14:29:35.777Z,21.40
2018-07-11T14:32:04.068Z,21.40
2018-07-11T14:34:32.307Z,21.40
2018-07-11T14:39:28.492Z,21.30
2018-07-11T14:41:56.263Z,21.20
2018-07-11T14:44:23.951Z,21.10
2018-07-11T14:46:51.805Z,21.10
2018-07-11T14:49:20.417Z,21.10
2018-07-11T14:51:48.291Z,21.00
2018-07-11T14:54:16.147Z,21.00
2018-07-11T14:56:44.036Z,20.90
2018-07-11T14:59:12.036Z,20.90
2018-07-11T15:01:39.752Z,20.90
2018-07-11T15:04:08.462Z,20.90
2018-07-11T15:06:36.046Z,20.90
2018-07-11T15:09:04.679Z,20.90
2018-07-11T15:11:32.054Z,20.80
2018-07-11T15:13:59.962Z,20.80
2018-07-11T15:16:27.630Z,20.90
2018-07-11T15:18:55.164Z,20.90
2018-07-11T15:21:23.501Z,20.90
2018-07-11T15:23:51.169Z,20.90
2018-07-11T15:28:46.567Z,21.00
2018-07-11T15:31:14.534Z,21.00
2018-07-11T15:33:42.497Z,21.10
2018-07-11T15:36:10.112Z,21.10
2018-07-11T15:38:37.820Z,21.10
2018-07-11T15:41:05.671Z,21.10
2018-07-11T15:43:33.402Z,21.10
2018-07-11T15:46:00.966Z,21.10
2018-07-11T15:48:28.819Z,21.10
2018-07-11T15:50:56.683Z,21.10
2018-07-11T15:53:25.978Z,21.10
2018-07-11T15:55:53.495Z,21.10
2018-07-11T15:58:22.439Z,21.10
2018-07-11T16:00:50.129Z,21.20
2018-07-11T16:03:18.093Z,21.10
2018-07-11T16:05:46.410Z,21.10
2018-07-11T16:08:16.744Z,21.00
2018-07-11T16:10:48.323Z,20.90
2018-07-11T16:13:15.982Z,20.80
2018-07-11T16:15:44.259Z,20.60
2018-07-11T16:18:11.946Z,20.50
2018-07-11T16:20:39.526Z,20.40
2018-07-11T16:23:08.134Z,20.30
2018-07-11T16:25:36.470Z,20.30
2018-07-11T16:28:05.238Z,20.40
2018-07-11T16:30:32.979Z,20.30
2018-07-11T16:33:01.437Z,20.30
2018-07-11T16:35:29.303Z,20.30
2018-07-11T16:37:59.130Z,20.30
2018-07-11T16:40:27.622Z,20.30
2018-07-11T16:42:55.363Z,20.30
2018-07-11T16:45:23.441Z,20.30
2018-07-11T16:47:51.032Z,20.30
2018-07-11T16:50:19.634Z,20.30
2018-07-11T16:52:47.535Z,20.30
2018-07-11T16:55:15.345Z,20.30
2018-07-11T16:57:47.210Z,20.30
2018-07-11T17:00:15.174Z,20.30
2018-07-11T17:02:44.553Z,20.30
2018-07-11T17:05:17.583Z,20.30
2018-07-11T17:07:50.011Z,20.30
2018-07-11T17:10:19.504Z,20.30
2018-07-11T17:12:52.976Z,20.30
2018-07-11T17:15:22.841Z,20.30
2018-07-11T17:17:53.381Z,20.30
2018-07-11T17:20:21.651Z,20.40
2018-07-11T17:22:55.925Z,20.30
2018-07-11T17:25:27.360Z,20.30
2018-07-11T17:27:59.305Z,20.30
2018-07-11T17:30:34.053Z,20.30
2018-07-11T17:33:03.151Z,20.30
2018-07-11T17:35:32.233Z,20.30
2018-07-11T17:38:02.030Z,20.30
2018-07-11T17:40:35.064Z,20.30
2018-07-11T17:43:03.335Z,20.30
2018-07-11T17:45:31.026Z,20.30
2018-07-11T17:48:07.313Z,20.30
2018-07-11T17:50:37.006Z,20.30
2018-07-11T17:53:12.760Z,20.30
2018-07-11T17:56:12.613Z,20.40
2018-07-11T17:58:51.337Z,20.30
2018-07-11T18:04:13.387Z,20.40
2018-07-11T18:06:53.602Z,20.40
2018-07-11T18:09:22.090Z,20.40
2018-07-11T18:11:53.987Z,20.40
2018-07-11T18:14:28.512Z,20.40
2018-07-11T18:16:59.049Z,20.40
2018-07-11T18:20:38.222Z,20.40
2018-07-11T18:23:18.768Z,20.40
2018-07-11T18:26:01.393Z,20.40
2018-07-11T18:28:42.207Z,20.40
2018-07-11T18:31:33.296Z,20.40
2018-07-11T18:34:12.274Z,20.40
2018-07-11T18:40:24.389Z,20.40
2018-07-11T18:43:03.038Z,20.50
2018-07-11T18:47:14.229Z,20.60
2018-07-11T18:50:05.879Z,20.70
2018-07-11T18:52:36.772Z,20.70
2018-07-11T18:56:24.714Z,20.80
2018-07-11T18:58:53.390Z,20.80
2018-07-11T19:02:02.525Z,20.90
2018-07-11T19:04:41.611Z,20.90
2018-07-11T19:07:13.894Z,20.90
2018-07-11T19:09:44.311Z,21.00
2018-07-11T19:12:24.441Z,21.00
2018-07-11T19:15:03.595Z,21.00
2018-07-11T19:19:50.171Z,21.00
2018-07-11T19:22:28.035Z,21.00
2018-07-11T19:25:03.383Z,21.10
2018-07-11T19:27:37.641Z,21.10
2018-07-11T19:30:16.925Z,21.10
2018-07-11T19:34:01.926Z,21.10
2018-07-11T19:37:09.562Z,21.10
2018-07-11T19:39:45.052Z,21.10
2018-07-11T19:42:24.206Z,21.10
2018-07-11T19:46:05.381Z,21.10
2018-07-11T19:50:44.018Z,21.10
2018-07-11T19:53:20.981Z,21.20
2018-07-11T19:55:57.856Z,21.10
2018-07-11T19:58:25.559Z,21.10
2018-07-11T20:00:53.417Z,21.10
2018-07-11T20:03:20.992Z,21.10
2018-07-11T20:05:53.340Z,21.10
2018-07-11T20:08:16.223Z,21.10
2018-07-11T20:10:43.788Z,21.10
2018-07-11T20:13:11.418Z,21.10
2018-07-11T20:15:39.050Z,21.10
2018-07-11T20:18:06.897Z,21.10
2018-07-11T20:20:34.338Z,21.10
2018-07-11T20:23:01.940Z,21.10
2018-07-11T20:25:29.598Z,21.10
2018-07-11T20:27:57.286Z,21.00
2018-07-11T20:30:24.962Z,21.00
2018-07-11T20:32:52.465Z,21.00
2018-07-11T20:35:19.974Z,21.00
2018-07-11T20:37:48.049Z,20.90
2018-07-11T20:40:15.744Z,21.00
2018-07-11T20:42:43.264Z,21.00
2018-07-11T20:45:11.177Z,20.90
2018-07-11T20:47:39.152Z,21.00
2018-07-11T20:50:06.679Z,21.00
2018-07-11T20:52:34.357Z,21.00
2018-07-11T20:55:01.894Z,20.90
2018-07-11T20:57:29.714Z,21.00
2018-07-11T21:00:08.691Z,20.90
2018-07-11T21:02:50.654Z,20.90
2018-07-11T21:07:36.445Z,20.90
2018-07-11T21:11:21.996Z,20.90
2018-07-11T21:15:01.492Z,20.80
2018-07-11T21:19:37.826Z,20.70
2018-07-11T21:22:05.551Z,20.60
2018-07-11T21:24:33.046Z,20.50
2018-07-11T21:27:00.626Z,20.50
2018-07-11T21:29:28.235Z,20.50
2018-07-11T21:31:55.779Z,20.50
2018-07-11T21:34:23.435Z,20.40
2018-07-11T21:36:50.882Z,20.40
2018-07-11T21:41:46.016Z,20.50
2018-07-11T21:44:13.450Z,20.50
2018-07-11T21:46:41.594Z,20.50
2018-07-11T21:49:09.127Z,20.50
2018-07-11T21:51:36.593Z,20.50
2018-07-11T21:54:04.441Z,20.50
2018-07-11T21:56:32.007Z,20.40
2018-07-11T21:58:59.585Z,20.50
2018-07-11T22:01:27.182Z,20.50
2018-07-11T22:03:54.879Z,20.50
2018-07-11T22:06:22.446Z,20.50
2018-07-11T22:08:50.032Z,20.50
2018-07-11T22:11:18.093Z,20.50
2018-07-11T22:13:45.578Z,20.50
2018-07-11T22:16:13.210Z,20.50
2018-07-11T22:18:42.935Z,20.50
2018-07-11T22:21:10.275Z,20.50
2018-07-11T22:23:36.749Z,20.50
2018-07-11T22:26:03.422Z,20.50
2018-07-11T22:28:30.367Z,20.50
2018-07-11T22:30:56.900Z,20.50
2018-07-11T22:33:23.372Z,20.50
2018-07-11T22:35:49.858Z,20.50
2018-07-11T22:40:43.866Z,20.40
2018-07-11T22:43:10.326Z,20.40
2018-07-11T22:45:36.795Z,20.40
2018-07-11T22:48:03.375Z,20.40
2018-07-11T22:50:30.153Z,20.50
2018-07-11T22:52:56.612Z,20.50
2018-07-11T22:55:23.104Z,20.40
2018-07-11T22:57:49.629Z,20.40
2018-07-11T23:00:16.435Z,20.50
2018-07-11T23:02:42.974Z,20.40
2018-07-11T23:05:09.389Z,20.40
2018-07-11T23:07:35.858Z,20.40
2018-07-11T23:12:29.374Z,20.50
2018-07-11T23:14:55.939Z,20.50
2018-07-11T23:17:22.393Z,20.50
2018-07-11T23:19:48.920Z,20.50
2018-07-11T23:22:15.420Z,20.50
2018-07-11T23:24:41.968Z,20.50
2018-07-11T23:27:08.502Z,20.50
2018-07-11T23:29:35.006Z,20.50
2018-07-11T23:32:01.638Z,20.50
2018-07-11T23:34:28.145Z,20.50
2018-07-11T23:36:54.689Z,20.50
2018-07-11T23:39:27.139Z,20.50
2018-07-11T23:41:59.562Z,20.50
2018-07-11T23:44:25.999Z,20.40
2018-07-11T23:49:19.459Z,20.40
2018-07-11T23:51:45.928Z,20.50
2018-07-11T23:54:12.414Z,20.50
2018-07-11T23:56:38.932Z,20.50
2018-07-11T23:59:05.467Z,20.50
